PASIPAKW

Guest
Details From PASI - Sitka Rocky Gutierrez
To PAKW - Klawock
Flight Number -
Tags Routegen Generated
Created
Modified
Stats Distance 123 nm / 227 km
Max Altitude 400 ft / 122 m
Waypoints 9
Social Downloads 0
Likes 0
Share VATSIM

Download

Looking for another format? Having issues loading an existing format? Contact us
Advertisement - Login to hide

Notes

Departing runway 13 PASI. Arriving runway 3 PAKW.

Route

PASI +56.99_-135.26 +56.54_-134.36 +55.85_-133.06 +55.81_-132.99 +55.75_-132.96 +55.70_-132.95 +55.64_-132.99 PAKW

ID Type Via Altitude Latitude Longitude Leg Dist Tot Dist Heading (true) Name
O PASI APT - 0 ft / 0 m 57.04078˚ -135.35016˚ - 0 nm - -
+56.99_-135.26 LATLON - 400 ft / 122 m 56.98905˚ -135.25721˚ 4 nm 4 nm 136° / 136° -
+56.54_-134.36 LATLON - 400 ft / 122 m 56.53676˚ -134.35835˚ 40 nm 44 nm 132° / 133° -
+55.85_-133.06 LATLON - 400 ft / 122 m 55.85108˚ -133.06001˚ 59 nm 104 nm 133° / 134° -
+55.81_-132.99 LATLON - 400 ft / 122 m 55.80736˚ -132.99245˚ 3 nm 107 nm 139° / 139° -
+55.75_-132.96 LATLON - 400 ft / 122 m 55.75329˚ -132.95565˚ 3 nm 111 nm 159° / 159° -
+55.70_-132.95 LATLON - 400 ft / 122 m 55.69541˚ -132.95399˚ 3 nm 114 nm 179° / 179° -
+55.64_-132.99 LATLON - 400 ft / 122 m 55.64070˚ -132.98755˚ 3 nm 118 nm 199° / 199° -
O PAKW APT - 0 ft / 0 m 55.58454˚ -133.06837˚ 4 nm 122 nm 219° / 219° -

Altitude Profile

Advertisement - Login to hide

PASI

Details ICAO PASI (SIT)
Name SITKA ROCKY GUTIERREZ
Region USA (Alaska)
Timezone America/Juneau (UTC-9.0)
Stats Elevation 21 ft / 6 m (AMSL)
Location 57.047128° -135.361597°
Runways 1
Magnetic Variation 18.748° E

METAR

PASI 181653Z 00000KT 10SM SCT044 BKN060 OVC075 02/01 A2985

Decode

TAF

TAF PASI 181138Z 1812/1912 10006KT P6SM VCSH SCT025 OVC040 TEMPO 1812/1814 4SM -SHRAPL BKN015 OVC025 FM181400 09005KT P6SM VCSH SCT015 OVC050 FM190000 07004KT P6SM BKN100

Decode

Departure Runways

ID Width Length Bearing (true) Bearing (mag) Surface Threshold Offset Overrun Length
11 150 ft / 46 m 6,485 ft / 1,977 m 135.57° 116.82° Asphalt 0 ft / 0 m 0 ft / 0 m
29 150 ft / 46 m 6,485 ft / 1,977 m 315.59° 296.84° Asphalt 0 ft / 0 m 0 ft / 0 m

PAKW

Details ICAO PAKW (KLW)
Name KLAWOCK
Region USA (Alaska)
Timezone Unknown (UTC+0.0)
Stats Elevation 80 ft / 24 m (AMSL)
Location 55.579232° -133.075997°
Runways 1
Magnetic Variation 18.545° E

METAR

PAKW 181653Z AUTO VRB03KT 10SM BKN027 OVC110 01/01 A2988 RMK AO2 RAE00 SLP120 P0000 T00110011 TSNO

Decode

TAF

PAKW 181501Z 1815/1912 VRB02KT 4SM -SHRASN SCT003 BKN025 OVC040 TEMPO 1815/1816 00000KT 1SM -SHSN OVC015 FM181900 04006KT P6SM -SHRA SCT025 OVC040 FM190000 04005KT P6SM SCT050 FM190300 VRB03KT 1SM BR SCT002 AMD LTD TO CLD VIS AND WIND

Decode

Destination Runways

ID Width Length Bearing (true) Bearing (mag) Surface Threshold Offset Overrun Length
02 100 ft / 30 m 4,991 ft / 1,521 m 39.06° 20.51° Asphalt 0 ft / 0 m 0 ft / 0 m
20 100 ft / 30 m 4,991 ft / 1,521 m 219.07° 200.52° Asphalt 0 ft / 0 m 0 ft / 0 m